CheckWX is a tool to help pilots better visualize weather data.  It is not intended as a substitute for an official pre-flight weather briefing.

22:18:17 UTC

KOUN TAF
University of Oklahoma Westheimer Airport
Norman, Oklahoma, USA
KOUN 112344Z 1200/1224 17010KT P6SM SCT100 FM120600 18006KT P6SM VCTS SCT100CB FM120900 09006KT P6SM BKN100 PROB30 1209/1212 VRB20G35KT 4SM TSRA BKN050CB FM122200 08009KT P6SM SCT060

Jul-12@
00:00 UTC

Jul-12 @ 00:00 UTC

Jul-12@
06:00 UTC

Jul-12 @ 06:00 UTC

TAF KOUN 112344Z 1200/1224 17010KT P6SM SCT100

Expired

Wind
  • 170° at 10 KTS
Cloud Levels
  • Scattered at 10,000' AGL

Jul-12@
06:00 UTC

Jul-12 @ 06:00 UTC

Jul-12@
09:00 UTC

Jul-12 @ 09:00 UTC

FM120600 18006KT P6SM VCTS SCT100CB

Expired

Wind
  • 180° at 6 KTS
Conditions
Area Thunderstorm
Cloud Levels
  • Scattered at 10,000' AGL

Jul-12@
09:00 UTC

Jul-12 @ 09:00 UTC

Jul-12@
12:00 UTC

Jul-12 @ 12:00 UTC

PROB30 1209/1212 VRB20G35KT 4SM TSRA BKN050CB

Expired

Wind
  • Variable at 20 KTS
  • {Gusting to 35 KTS
Conditions
Thunderstorm, Rain
Cloud Levels
  • Broken at 5,000' AGL

Jul-12@
09:00 UTC

Jul-12 @ 09:00 UTC

Jul-12@
22:00 UTC

Jul-12 @ 22:00 UTC

FM120900 09006KT P6SM BKN100

Expired

Wind
  • 090° at 6 KTS
Cloud Levels
  • Broken at 10,000' AGL

Jul-12@
22:00 UTC

Jul-12 @ 22:00 UTC

Jul-13@
00:00 UTC

Jul-13 @ 00:00 UTC

FM122200 08009KT P6SM SCT060

From

From Standard forecast or significant change

Wind
  • 080° at 9 KTS
Cloud Levels
  • Scattered at 6,000' AGL